Time;durP1;ratioP1;P1;durP2;ratioP2;P2;SDS_P1;SDS_P2;PMS_P1;PMS_P2;Temp;Humidity;BMP_temperature;BMP_pressure;BME280_temperature;BME280_humidity;BME280_pressure;Samples;Min_cycle;Max_cycle;Signal;HPM_P1;HPM_P2
2024/04/04 00:00:22;;;;;;;4.57;3.57;;;8.60;99.90;;;;;;5017314;28;20257;-72
2024/04/04 00:02:50;;;;;;;5.53;4.10;;;8.50;99.90;;;;;;5033990;28;20263;-73
2024/04/04 00:05:16;;;;;;;4.53;3.60;;;8.50;99.90;;;;;;5033869;28;20274;-72
2024/04/04 00:07:42;;;;;;;8.13;4.03;;;8.40;99.90;;;;;;5033713;28;20297;-72
2024/04/04 00:10:07;;;;;;;5.63;3.47;;;8.30;99.90;;;;;;5033635;28;20183;-74
2024/04/04 00:12:33;;;;;;;8.60;3.70;;;8.40;99.90;;;;;;5033578;28;20218;-74
2024/04/04 00:14:59;;;;;;;5.80;3.70;;;8.30;99.90;;;;;;5018997;28;20582;-72
2024/04/04 00:17:24;;;;;;;5.43;3.53;;;8.30;99.90;;;;;;5013824;28;20180;-72
2024/04/04 00:19:50;;;;;;;6.17;3.60;;;8.30;99.90;;;;;;5014010;28;20633;-72
2024/04/04 00:22:16;;;;;;;6.30;3.60;;;8.30;99.90;;;;;;5045531;28;20200;-72
2024/04/04 00:24:41;;;;;;;3.77;3.50;;;8.30;99.90;;;;;;5013740;28;20202;-72
2024/04/04 00:27:07;;;;;;;4.07;3.67;;;8.40;99.90;;;;;;5013484;28;20168;-72
2024/04/04 00:29:33;;;;;;;6.70;3.77;;;8.40;99.90;;;;;;5026280;28;20171;-72
2024/04/04 00:31:58;;;;;;;4.40;4.00;;;8.50;99.90;;;;;;5033467;28;20246;-73
2024/04/04 00:34:24;;;;;;;7.80;4.07;;;8.60;99.90;;;;;;5033528;28;20258;-72
2024/04/04 00:36:50;;;;;;;8.00;3.73;;;8.60;99.90;;;;;;5032666;28;20250;-72
2024/04/04 00:39:15;;;;;;;6.33;3.60;;;8.80;99.90;;;;;;5033107;28;20176;-73
2024/04/04 00:41:41;;;;;;;4.93;3.73;;;8.80;99.90;;;;;;5029492;28;20192;-74
2024/04/04 00:44:07;;;;;;;4.03;3.50;;;8.90;99.90;;;;;;5013281;28;20188;-73
2024/04/04 00:46:33;;;;;;;5.57;4.47;;;9.00;99.90;;;;;;5013201;28;20644;-73
2024/04/04 00:49:00;;;;;;;3.73;3.43;;;9.10;99.90;;;;;;5013159;28;20180;-73
2024/04/04 00:51:27;;;;;;;3.70;3.40;;;9.20;99.90;;;;;;5013417;28;20223;-75
2024/04/04 00:53:54;;;;;;;7.33;3.53;;;9.20;99.90;;;;;;5013514;28;20660;-73
2024/04/04 00:56:20;;;;;;;5.90;3.80;;;9.30;99.90;;;;;;5015440;28;20593;-73
2024/04/04 00:58:47;;;;;;;6.97;3.57;;;9.30;99.90;;;;;;5032899;28;20587;-73
2024/04/04 01:01:13;;;;;;;4.30;3.77;;;9.40;99.90;;;;;;5032940;28;20191;-73
2024/04/04 01:03:40;;;;;;;6.37;3.40;;;9.40;99.90;;;;;;5033061;28;20182;-73
2024/04/04 01:06:05;;;;;;;7.50;4.20;;;9.50;99.90;;;;;;5032723;28;20581;-73
2024/04/04 01:08:32;;;;;;;5.93;3.63;;;9.50;99.90;;;;;;5032929;28;20182;-73
2024/04/04 01:10:58;;;;;;;4.57;3.30;;;9.50;99.90;;;;;;5018608;28;20246;-73
2024/04/04 01:13:24;;;;;;;5.77;3.60;;;9.60;99.90;;;;;;5013079;28;20247;-73
2024/04/04 01:15:49;;;;;;;3.60;3.30;;;9.60;99.90;;;;;;5044615;28;20692;-73
2024/04/04 01:18:15;;;;;;;4.77;3.40;;;9.60;99.90;;;;;;5012368;28;20270;-73
2024/04/04 01:20:41;;;;;;;4.77;3.47;;;9.60;99.90;;;;;;5012687;28;20192;-73
2024/04/04 01:23:06;;;;;;;4.93;3.33;;;9.70;99.90;;;;;;5012565;28;20645;-73
2024/04/04 01:25:32;;;;;;;3.77;3.50;;;9.70;99.90;;;;;;5012743;28;20176;-72
2024/04/04 01:27:58;;;;;;;3.40;3.10;;;9.70;99.90;;;;;;5012453;28;20256;-73
2024/04/04 01:30:24;;;;;;;3.97;3.33;;;9.70;99.90;;;;;;5012165;28;20222;-73
2024/04/04 01:32:49;;;;;;;5.53;3.50;;;9.70;99.90;;;;;;5012311;28;20212;-73
2024/04/04 01:35:15;;;;;;;7.27;3.53;;;9.70;99.90;;;;;;5044103;28;20187;-73
2024/04/04 01:37:40;;;;;;;4.30;3.13;;;9.70;99.90;;;;;;5034883;28;20688;-73
2024/04/04 01:40:08;;;;;;;4.40;3.60;;;9.80;99.90;;;;;;5012225;28;20479;-74
2024/04/04 01:42:34;;;;;;;6.00;3.97;;;9.80;99.90;;;;;;5012250;28;20171;-72
2024/04/04 01:44:59;;;;;;;6.17;3.67;;;9.70;99.90;;;;;;5019017;28;20172;-73
2024/04/04 01:47:25;;;;;;;3.57;3.37;;;9.80;99.90;;;;;;5031623;28;20270;-73
2024/04/04 01:49:50;;;;;;;4.97;3.60;;;9.80;99.90;;;;;;5031510;28;20237;-73
2024/04/04 01:52:16;;;;;;;4.50;3.70;;;9.70;99.90;;;;;;5031673;28;20281;-73
2024/04/04 01:54:42;;;;;;;4.23;3.60;;;9.70;99.90;;;;;;5031741;28;20255;-73
2024/04/04 01:57:07;;;;;;;5.13;3.63;;;9.70;99.90;;;;;;5031548;28;20265;-75
2024/04/04 01:59:33;;;;;;;7.67;3.40;;;9.60;99.90;;;;;;5031560;28;20186;-73
2024/04/04 02:01:59;;;;;;;5.27;4.00;;;9.60;99.90;;;;;;5031598;28;20665;-73
2024/04/04 02:04:24;;;;;;;5.90;3.80;;;9.60;99.90;;;;;;5030102;28;20179;-72
2024/04/04 02:06:50;;;;;;;4.10;3.73;;;9.60;99.90;;;;;;5043332;28;20211;-73
2024/04/04 02:09:16;;;;;;;7.20;4.00;;;9.70;99.90;;;;;;5011793;28;20699;-73
2024/04/04 02:11:41;;;;;;;4.90;3.30;;;9.70;99.90;;;;;;5012199;28;20192;-72
2024/04/04 02:14:09;;;;;;;5.83;3.53;;;9.70;99.90;;;;;;5011931;28;20235;-72
2024/04/04 02:16:38;;;;;;;8.10;3.43;;;9.70;99.90;;;;;;5012017;28;20168;-73
2024/04/04 02:19:05;;;;;;;3.87;3.30;;;9.80;99.90;;;;;;5011913;28;20165;-73
2024/04/04 02:21:31;;;;;;;6.03;3.50;;;9.80;99.90;;;;;;5012315;28;20188;-73
2024/04/04 02:23:57;;;;;;;3.60;3.30;;;9.80;99.90;;;;;;5011953;28;20538;-72
2024/04/04 02:26:23;;;;;;;5.67;3.67;;;9.80;99.90;;;;;;5011820;28;20168;-72
2024/04/04 02:28:48;;;;;;;9.23;3.60;;;9.90;99.90;;;;;;5011995;28;20180;-72
2024/04/04 02:31:15;;;;;;;3.60;3.30;;;9.90;99.90;;;;;;5042176;23;20229;-72
2024/04/04 02:33:40;;;;;;;3.50;3.20;;;9.90;99.90;;;;;;5031535;28;20204;-72
2024/04/04 02:36:06;;;;;;;3.60;3.40;;;10.00;99.90;;;;;;5031506;28;20217;-72
2024/04/04 02:38:32;;;;;;;3.73;3.43;;;10.00;99.90;;;;;;5031461;28;20171;-72
2024/04/04 02:40:58;;;;;;;3.77;3.37;;;10.00;99.90;;;;;;5025263;28;20196;-72
2024/04/04 02:43:23;;;;;;;5.40;3.77;;;10.00;99.90;;;;;;5011783;28;20176;-72
2024/04/04 02:45:59;;;;;;;8.33;3.40;;;9.90;99.90;;;;;;5011242;28;20653;-72
2024/04/04 02:48:24;;;;;;;6.07;4.00;;;9.90;99.90;;;;;;5011415;28;20178;-73
2024/04/04 02:50:54;;;;;;;3.70;3.50;;;9.90;99.90;;;;;;5011641;28;20192;-72
2024/04/04 02:53:20;;;;;;;3.70;3.40;;;9.90;99.90;;;;;;5011516;28;20288;-73
2024/04/04 02:55:56;;;;;;;6.03;3.83;;;9.90;99.90;;;;;;5011354;28;20212;-73
2024/04/04 02:58:23;;;;;;;7.43;3.60;;;9.80;99.90;;;;;;5011346;28;20687;-73
2024/04/04 03:00:49;;;;;;;4.00;3.63;;;9.80;99.90;;;;;;5014485;28;20283;-73
2024/04/04 03:03:15;;;;;;;3.67;3.40;;;9.80;99.90;;;;;;5016128;28;20629;-73
2024/04/04 03:05:41;;;;;;;3.70;3.40;;;9.90;99.90;;;;;;5016122;28;20261;-74
2024/04/04 03:08:10;;;;;;;4.57;3.57;;;9.90;99.90;;;;;;5015220;28;20168;-73
2024/04/04 03:10:37;;;;;;;3.90;3.70;;;9.90;99.90;;;;;;5015454;28;20226;-73
2024/04/04 03:13:03;;;;;;;3.57;3.37;;;9.90;99.90;;;;;;5015295;28;20205;-73
2024/04/04 03:15:30;;;;;;;5.83;3.77;;;10.00;99.90;;;;;;5015389;28;20172;-73
2024/04/04 03:17:56;;;;;;;5.67;4.37;;;10.00;99.90;;;;;;5014949;28;20226;-73
2024/04/04 03:20:22;;;;;;;4.30;3.90;;;10.10;99.90;;;;;;5015166;28;20172;-72
2024/04/04 03:22:47;;;;;;;4.50;4.10;;;10.10;99.90;;;;;;5014953;28;20698;-73
2024/04/04 03:25:13;;;;;;;4.67;4.03;;;10.10;99.90;;;;;;5014957;28;20967;-73
2024/04/04 03:27:38;;;;;;;5.30;4.33;;;10.10;99.90;;;;;;5014652;28;20180;-73
2024/04/04 03:30:05;;;;;;;4.27;3.80;;;10.10;99.90;;;;;;5014806;28;20180;-73
2024/04/04 03:32:31;;;;;;;4.30;4.00;;;10.10;99.90;;;;;;5014209;28;20243;-73
2024/04/04 03:34:58;;;;;;;4.37;3.97;;;10.10;99.90;;;;;;5013740;28;20314;-73
2024/04/04 03:37:24;;;;;;;6.47;3.80;;;10.00;99.90;;;;;;5014127;28;20180;-73
2024/04/04 03:39:50;;;;;;;7.37;4.63;;;10.00;99.90;;;;;;5014167;28;20187;-73
2024/04/04 03:42:15;;;;;;;5.80;5.13;;;10.00;99.90;;;;;;5014001;28;20196;-73
2024/04/04 03:44:41;;;;;;;4.60;4.30;;;10.00;99.90;;;;;;5013542;28;20314;-73
2024/04/04 03:47:06;;;;;;;5.40;4.60;;;10.00;99.90;;;;;;5014541;28;20176;-73
2024/04/04 03:49:32;;;;;;;6.77;4.50;;;10.00;99.90;;;;;;4997027;28;20263;-73
2024/04/04 03:51:57;;;;;;;6.60;4.80;;;10.00;99.90;;;;;;5014559;28;20275;-73
2024/04/04 03:54:23;;;;;;;7.20;5.70;;;10.10;99.90;;;;;;5014538;28;20215;-73
2024/04/04 03:56:49;;;;;;;7.03;4.97;;;10.00;99.90;;;;;;5014429;28;20278;-72
2024/04/04 03:59:14;;;;;;;5.00;4.70;;;10.00;99.90;;;;;;5014737;28;20255;-73
2024/04/04 04:01:40;;;;;;;8.00;5.63;;;10.10;99.90;;;;;;5014270;28;20584;-73
2024/04/04 04:04:05;;;;;;;7.30;5.23;;;10.10;99.90;;;;;;5014536;28;20211;-73
2024/04/04 04:06:31;;;;;;;5.50;4.90;;;10.10;99.90;;;;;;5014509;28;20187;-73
2024/04/04 04:08:56;;;;;;;9.83;5.03;;;10.20;99.90;;;;;;5015967;28;20541;-73
2024/04/04 04:11:22;;;;;;;6.00;5.50;;;10.20;99.90;;;;;;5013005;28;20212;-73
2024/04/04 04:13:48;;;;;;;6.10;5.50;;;10.30;99.90;;;;;;5014157;28;20196;-73
2024/04/04 04:16:14;;;;;;;6.17;5.20;;;10.30;99.90;;;;;;4995327;28;20599;-73
2024/04/04 04:18:39;;;;;;;5.83;5.23;;;10.30;99.90;;;;;;5013307;28;20183;-73
2024/04/04 04:21:20;;;;;;;5.67;5.10;;;10.40;99.90;;;;;;5013744;28;20196;-73
2024/04/04 04:23:47;;;;;;;5.97;5.47;;;10.40;99.90;;;;;;5014409;28;20188;-73
2024/04/04 04:26:13;;;;;;;7.73;5.07;;;10.50;99.90;;;;;;5013775;28;20275;-73
2024/04/04 04:28:39;;;;;;;5.20;4.70;;;10.50;99.90;;;;;;5013612;28;20613;-73
2024/04/04 04:31:25;;;;;;;9.87;4.80;;;10.50;99.90;;;;;;5013761;28;20235;-72
2024/04/04 04:33:52;;;;;;;4.37;4.07;;;10.60;99.90;;;;;;5013986;28;20265;-72
2024/04/04 04:36:18;;;;;;;5.83;4.00;;;10.60;99.90;;;;;;5013596;28;20176;-74
2024/04/04 04:38:44;;;;;;;4.50;4.10;;;10.60;99.90;;;;;;5013734;28;20184;-72
2024/04/04 04:41:10;;;;;;;4.47;3.80;;;10.70;99.90;;;;;;5013603;28;20195;-73
2024/04/04 04:43:35;;;;;;;4.47;4.07;;;10.70;99.90;;;;;;5013625;28;20184;-72
2024/04/04 04:46:01;;;;;;;4.77;3.73;;;10.70;99.90;;;;;;5013489;28;20605;-74
2024/04/04 04:48:27;;;;;;;4.43;3.80;;;10.80;99.90;;;;;;5013279;28;20211;-73
2024/04/04 04:50:52;;;;;;;4.03;3.60;;;10.80;99.90;;;;;;5013012;28;20218;-72
2024/04/04 04:53:18;;;;;;;3.80;3.50;;;10.80;99.90;;;;;;5013171;28;20204;-73
2024/04/04 04:55:47;;;;;;;4.63;3.73;;;10.90;99.90;;;;;;5013210;28;20180;-72
2024/04/04 04:58:13;;;;;;;3.93;3.60;;;10.90;99.90;;;;;;5012786;28;20699;-73
2024/04/04 05:00:38;;;;;;;3.80;3.50;;;10.90;99.90;;;;;;5013051;28;20196;-74
2024/04/04 05:03:05;;;;;;;4.17;3.40;;;11.00;99.90;;;;;;5013465;28;20188;-73
2024/04/04 05:05:30;;;;;;;3.30;3.10;;;11.00;99.90;;;;;;5013138;28;20271;-75
2024/04/04 05:07:56;;;;;;;3.70;3.50;;;11.10;99.90;;;;;;5012726;28;20267;-72
2024/04/04 05:10:22;;;;;;;4.83;3.57;;;11.10;99.90;;;;;;5012839;28;20182;-73
2024/04/04 05:12:47;;;;;;;3.40;3.17;;;11.10;99.90;;;;;;5012791;28;20204;-72
2024/04/04 05:15:13;;;;;;;4.13;3.40;;;11.20;99.90;;;;;;5012421;28;20172;-72
2024/04/04 05:17:39;;;;;;;3.60;3.40;;;11.20;99.90;;;;;;5012443;28;20176;-72
2024/04/04 05:20:05;;;;;;;3.60;3.30;;;11.20;99.90;;;;;;5012640;28;20172;-73
2024/04/04 05:22:31;;;;;;;3.80;3.43;;;11.30;99.90;;;;;;5012291;28;20196;-74
2024/04/04 05:24:56;;;;;;;3.40;3.23;;;11.30;99.90;;;;;;5012567;28;20172;-74
2024/04/04 05:27:23;;;;;;;4.03;3.77;;;11.30;99.90;;;;;;5012235;28;20251;-72
2024/04/04 05:29:52;;;;;;;5.43;3.47;;;11.30;99.90;;;;;;5012633;28;20164;-73
2024/04/04 05:32:19;;;;;;;3.67;3.37;;;11.30;99.90;;;;;;5012207;28;20211;-73
2024/04/04 05:34:47;;;;;;;3.60;3.40;;;11.30;99.90;;;;;;5012258;28;20172;-73
2024/04/04 05:37:13;;;;;;;5.30;3.50;;;11.30;99.90;;;;;;4994574;28;20176;-74
2024/04/04 05:39:38;;;;;;;3.70;3.43;;;11.40;99.90;;;;;;5012733;28;20168;-72
2024/04/04 05:42:04;;;;;;;5.93;3.50;;;11.40;99.90;;;;;;5012390;28;20644;-72
2024/04/04 05:44:29;;;;;;;4.27;3.67;;;11.40;99.90;;;;;;5012716;28;20180;-72
2024/04/04 05:46:55;;;;;;;3.50;3.23;;;11.40;99.90;;;;;;5011930;28;20572;-72
2024/04/04 05:49:21;;;;;;;3.80;3.50;;;11.40;99.90;;;;;;5012269;28;20172;-73
2024/04/04 05:51:47;;;;;;;5.20;3.10;;;11.50;99.90;;;;;;5012135;28;20291;-71
2024/04/04 05:54:13;;;;;;;5.80;3.37;;;11.50;99.90;;;;;;5012233;28;20200;-73
2024/04/04 05:56:39;;;;;;;3.67;3.37;;;11.50;99.90;;;;;;5012251;28;20183;-72
2024/04/04 05:59:04;;;;;;;5.30;3.40;;;11.60;99.90;;;;;;4994295;28;20226;-73
2024/04/04 06:01:30;;;;;;;4.20;3.70;;;11.60;99.90;;;;;;5012158;28;20191;-73
2024/04/04 06:03:55;;;;;;;4.60;3.50;;;11.60;99.90;;;;;;5012106;28;20208;-73
2024/04/04 06:06:21;;;;;;;4.40;3.30;;;11.60;99.90;;;;;;5011572;28;20543;-74
2024/04/04 06:08:47;;;;;;;4.80;3.60;;;11.60;99.90;;;;;;5010730;28;20184;-73
2024/04/04 06:11:13;;;;;;;4.33;3.53;;;11.60;99.90;;;;;;5011608;28;20242;-73
2024/04/04 06:13:39;;;;;;;6.27;3.93;;;11.60;99.90;;;;;;5012124;28;20542;-74
2024/04/04 06:16:05;;;;;;;4.33;3.33;;;11.70;99.90;;;;;;5011825;28;20311;-73
2024/04/04 06:18:30;;;;;;;3.87;3.60;;;11.70;99.90;;;;;;5011631;28;20172;-74
2024/04/04 06:20:56;;;;;;;4.13;3.73;;;11.70;99.90;;;;;;5011776;28;20199;-73
2024/04/04 06:23:21;;;;;;;4.10;3.73;;;11.70;99.90;;;;;;5011846;28;20183;-73
2024/04/04 06:25:47;;;;;;;4.27;3.63;;;11.70;99.90;;;;;;5012298;28;20190;-73
2024/04/04 06:28:12;;;;;;;3.97;3.40;;;11.70;99.90;;;;;;5012192;28;20210;-73
2024/04/04 06:30:38;;;;;;;8.67;3.80;;;11.70;99.90;;;;;;5012482;28;20695;-73
2024/04/04 06:33:04;;;;;;;4.57;3.40;;;11.80;99.90;;;;;;5011346;28;20191;-73
2024/04/04 06:35:30;;;;;;;5.90;3.50;;;11.70;99.90;;;;;;5011299;28;20180;-72
2024/04/04 06:37:56;;;;;;;8.03;4.00;;;11.80;99.90;;;;;;5011299;28;20186;-72
2024/04/04 06:40:21;;;;;;;4.07;3.63;;;11.70;99.90;;;;;;5011383;28;20195;-74
2024/04/04 06:42:47;;;;;;;10.63;4.10;;;11.80;99.90;;;;;;5011512;28;20184;-73
2024/04/04 06:45:13;;;;;;;9.53;4.07;;;11.80;99.90;;;;;;5011385;28;20618;-72
2024/04/04 06:47:41;;;;;;;5.63;3.67;;;11.80;99.90;;;;;;5011275;28;20190;-73
2024/04/04 06:50:07;;;;;;;6.63;4.23;;;11.80;99.90;;;;;;5011242;28;20199;-72
2024/04/04 06:52:32;;;;;;;6.53;4.30;;;11.80;99.90;;;;;;5011232;28;20243;-73
2024/04/04 06:54:58;;;;;;;5.10;3.80;;;11.80;99.90;;;;;;5011287;28;20188;-73
2024/04/04 06:57:25;;;;;;;4.97;4.00;;;11.80;99.90;;;;;;5011203;28;20512;-73
2024/04/04 06:59:51;;;;;;;9.17;4.13;;;11.80;99.90;;;;;;5011381;28;20176;-74
2024/04/04 07:02:16;;;;;;;9.57;4.40;;;11.90;99.90;;;;;;5011086;28;20192;-73
2024/04/04 07:04:42;;;;;;;8.00;4.00;;;11.90;99.90;;;;;;4993872;28;20183;-73
2024/04/04 07:07:08;;;;;;;9.83;3.90;;;12.00;99.90;;;;;;5011173;28;20168;-73
2024/04/04 07:09:33;;;;;;;6.17;4.20;;;12.00;99.90;;;;;;5011442;28;20200;-73
2024/04/04 07:11:59;;;;;;;5.00;4.47;;;12.00;99.90;;;;;;5011310;28;20199;-75
2024/04/04 07:14:26;;;;;;;7.67;4.27;;;12.00;99.90;;;;;;5011654;28;20211;-74
2024/04/04 07:16:52;;;;;;;9.37;4.77;;;12.10;99.90;;;;;;5011459;28;20254;-74
2024/04/04 07:19:18;;;;;;;7.93;4.30;;;12.10;99.90;;;;;;5010949;28;20176;-73
2024/04/04 07:21:43;;;;;;;8.97;4.63;;;12.10;99.90;;;;;;5011098;28;20214;-72
2024/04/04 07:24:11;;;;;;;8.23;4.60;;;12.10;99.90;;;;;;5011130;28;20268;-73
2024/04/04 07:26:37;;;;;;;11.37;5.77;;;12.10;99.90;;;;;;5011090;28;20175;-72
2024/04/04 07:29:03;;;;;;;10.90;4.50;;;12.10;99.90;;;;;;5010877;28;20168;-73
2024/04/04 07:31:29;;;;;;;4.83;4.33;;;12.20;99.90;;;;;;5011023;28;20278;-73
2024/04/04 07:33:54;;;;;;;9.97;4.60;;;12.20;99.90;;;;;;5011090;28;20211;-74
2024/04/04 07:36:20;;;;;;;5.03;4.03;;;12.20;99.90;;;;;;5011420;28;20168;-74
2024/04/04 07:38:45;;;;;;;7.40;4.70;;;12.20;99.90;;;;;;5011381;28;20176;-72
2024/04/04 07:41:12;;;;;;;4.37;4.07;;;12.20;99.90;;;;;;5010953;28;20192;-73
2024/04/04 07:43:38;;;;;;;8.17;4.20;;;12.30;99.90;;;;;;5011234;28;20172;-73
2024/04/04 07:46:06;;;;;;;8.17;4.00;;;12.40;99.90;;;;;;5012699;28;20180;-74
2024/04/04 07:48:32;;;;;;;7.57;3.87;;;12.40;99.90;;;;;;4997107;28;20263;-73
2024/04/04 07:50:58;;;;;;;4.23;3.80;;;12.40;99.90;;;;;;5014588;28;20258;-74
2024/04/04 07:53:23;;;;;;;4.13;3.73;;;12.40;99.90;;;;;;5014505;28;20215;-73
2024/04/04 07:55:49;;;;;;;3.93;3.40;;;12.40;99.90;;;;;;5014595;28;20195;-74
2024/04/04 07:58:14;;;;;;;4.10;3.70;;;12.40;99.90;;;;;;5014444;28;20173;-74
2024/04/04 08:00:43;;;;;;;3.90;3.60;;;12.40;99.90;;;;;;5014341;28;20192;-74
2024/04/04 08:03:09;;;;;;;6.13;4.07;;;12.30;99.90;;;;;;5013909;28;20578;-77
2024/04/04 08:05:35;;;;;;;4.37;3.20;;;12.30;99.90;;;;;;5014298;28;20267;-76
2024/04/04 08:08:00;;;;;;;3.60;3.40;;;12.30;99.90;;;;;;5014109;28;20315;-76
2024/04/04 08:10:26;;;;;;;3.63;3.33;;;12.20;99.90;;;;;;5014453;28;20483;-76
2024/04/04 08:12:51;;;;;;;3.77;3.27;;;12.10;99.90;;;;;;5014167;28;20732;-73
2024/04/04 08:15:17;;;;;;;3.90;3.50;;;12.10;99.90;;;;;;5014035;28;20177;-77
2024/04/04 08:17:43;;;;;;;5.37;3.27;;;12.10;99.90;;;;;;5013753;28;20539;-74
2024/04/04 08:20:09;;;;;;;4.07;3.63;;;12.10;99.90;;;;;;5026013;28;20210;-75
2024/04/04 08:22:36;;;;;;;4.50;3.47;;;12.20;99.90;;;;;;5033644;28;20187;-75
2024/04/04 08:25:02;;;;;;;3.50;3.27;;;12.20;99.90;;;;;;5033500;28;20542;-77
2024/04/04 08:27:28;;;;;;;3.50;3.20;;;12.20;99.90;;;;;;5033673;28;20167;-75
2024/04/04 08:29:53;;;;;;;4.80;3.43;;;12.20;99.90;;;;;;5030336;28;21671;-76
2024/04/04 08:32:19;;;;;;;4.27;3.50;;;12.20;99.90;;;;;;4995803;28;20565;-77
2024/04/04 08:34:44;;;;;;;3.80;3.50;;;12.20;99.90;;;;;;5013753;28;20203;-77
2024/04/04 08:37:11;;;;;;;4.47;3.30;;;12.10;99.90;;;;;;5013305;28;20173;-77
2024/04/04 08:39:38;;;;;;;3.57;3.27;;;12.10;99.90;;;;;;5014146;28;20226;-75
2024/04/04 08:42:04;;;;;;;3.67;3.40;;;12.20;99.90;;;;;;5013453;28;20191;-75
2024/04/04 08:44:31;;;;;;;3.40;3.20;;;12.20;99.90;;;;;;5013380;28;20649;-75
2024/04/04 08:46:58;;;;;;;3.30;3.10;;;12.40;99.90;;;;;;5012921;28;20183;-75
2024/04/04 08:49:28;;;;;;;3.53;3.30;;;12.50;99.90;;;;;;5013398;28;20176;-74
2024/04/04 08:51:55;;;;;;;3.40;3.20;;;12.40;99.90;;;;;;5013934;28;20283;-72
2024/04/04 08:54:22;;;;;;;4.27;3.97;;;12.50;99.90;;;;;;5013242;28;20216;-74
2024/04/04 08:56:49;;;;;;;4.00;3.60;;;12.50;99.90;;;;;;5012846;28;20169;-74
2024/04/04 08:59:15;;;;;;;3.67;3.43;;;12.60;99.90;;;;;;5012400;28;20601;-75
2024/04/04 09:01:41;;;;;;;4.50;3.80;;;12.70;99.90;;;;;;5012796;28;20192;-74
2024/04/04 09:04:07;;;;;;;5.13;3.83;;;12.60;99.90;;;;;;5011218;28;20180;-74
2024/04/04 09:06:32;;;;;;;4.27;4.00;;;12.60;99.90;;;;;;5012789;28;20238;-75
2024/04/04 09:08:58;;;;;;;5.47;4.33;;;12.60;99.90;;;;;;5012812;28;20629;-75
2024/04/04 09:11:25;;;;;;;3.90;3.70;;;12.70;99.90;;;;;;5012089;28;20273;-74
2024/04/04 09:14:05;;;;;;;3.80;3.60;;;12.70;99.90;;;;;;5012188;28;20216;-74
2024/04/04 09:16:32;;;;;;;4.20;3.80;;;12.60;99.90;;;;;;5012353;28;20266;-75
2024/04/04 09:19:10;;;;;;;4.17;3.87;;;12.70;99.90;;;;;;5012423;28;20660;-74
2024/04/04 09:21:36;;;;;;;3.80;3.50;;;12.70;99.90;;;;;;5010920;28;20604;-74
2024/04/04 09:24:04;;;;;;;3.50;3.30;;;12.80;99.90;;;;;;5012677;28;20176;-74
2024/04/04 09:26:31;;;;;;;3.53;3.23;;;13.00;99.90;;;;;;5012002;28;20176;-72
2024/04/04 09:28:57;;;;;;;3.33;3.03;;;13.00;99.90;;;;;;5012417;28;20657;-75
2024/04/04 09:31:27;;;;;;;3.03;2.83;;;13.20;99.90;;;;;;5012325;28;20208;-75
2024/04/04 09:33:56;;;;;;;3.23;2.97;;;13.60;99.90;;;;;;5012280;28;20207;-74
2024/04/04 09:36:24;;;;;;;3.10;2.90;;;13.80;99.90;;;;;;5008558;28;20268;-73
2024/04/04 09:38:54;;;;;;;3.10;2.80;;;14.00;99.90;;;;;;5007076;28;20258;-75
2024/04/04 09:41:21;;;;;;;2.70;2.50;;;14.10;99.90;;;;;;5006772;28;20204;-74
2024/04/04 09:43:47;;;;;;;2.80;2.60;;;14.20;99.90;;;;;;5009500;28;20655;-75
2024/04/04 09:46:16;;;;;;;2.60;2.50;;;14.40;99.90;;;;;;5011326;28;20684;-75
2024/04/04 09:48:44;;;;;;;2.53;2.40;;;14.40;99.90;;;;;;5011699;28;20200;-75
2024/04/04 09:51:11;;;;;;;2.70;2.50;;;14.70;99.90;;;;;;5009922;28;20628;-75
2024/04/04 09:53:37;;;;;;;2.50;2.40;;;14.90;99.90;;;;;;5010122;28;20254;-75
2024/04/04 09:56:04;;;;;;;2.83;2.63;;;15.00;99.90;;;;;;5011339;28;20168;-74
2024/04/04 09:58:32;;;;;;;3.23;2.30;;;14.90;99.90;;;;;;5011772;28;20180;-74
2024/04/04 10:01:09;;;;;;;2.80;2.60;;;15.00;99.90;;;;;;5011128;28;20187;-73
2024/04/04 10:03:36;;;;;;;3.30;2.50;;;15.00;99.90;;;;;;4993582;28;20232;-73
2024/04/04 10:06:01;;;;;;;4.57;2.90;;;14.80;99.90;;;;;;5010603;28;20604;-75
2024/04/04 10:08:29;;;;;;;2.97;2.63;;;14.80;99.90;;;;;;5010504;28;20254;-74
2024/04/04 10:11:04;;;;;;;2.53;2.37;;;14.70;99.90;;;;;;5010264;28;20204;-72
2024/04/04 10:13:30;;;;;;;4.00;3.47;;;14.80;99.90;;;;;;5010836;28;20668;-73
2024/04/04 10:15:57;;;;;;;5.87;2.67;;;14.80;99.90;;;;;;5011779;28;20168;-74
2024/04/04 10:18:23;;;;;;;2.80;2.50;;;14.80;99.90;;;;;;4993805;28;20410;-74
2024/04/04 10:20:58;;;;;;;7.00;2.60;;;14.80;99.90;;;;;;4993635;28;20307;-74
2024/04/04 10:23:28;;;;;;;4.43;2.93;;;14.80;99.90;;;;;;5011619;28;20782;-73
2024/04/04 10:26:16;;;;;;;3.37;2.43;;;14.80;99.90;;;;;;5010016;28;20605;-73
2024/04/04 10:28:48;;;;;;;5.57;2.70;;;14.70;99.90;;;;;;4991426;28;20235;-72
2024/04/04 10:31:14;;;;;;;2.93;2.50;;;14.70;99.90;;;;;;5010893;28;20244;-73
2024/04/04 10:33:39;;;;;;;2.83;2.50;;;14.60;99.90;;;;;;5012331;28;20232;-73
2024/04/04 10:36:07;;;;;;;5.63;2.60;;;14.60;99.90;;;;;;5013399;28;20426;-72
2024/04/04 10:38:34;;;;;;;3.67;3.10;;;14.60;99.90;;;;;;5012517;28;20267;-73
2024/04/04 10:41:00;;;;;;;3.30;2.57;;;14.60;99.90;;;;;;5011377;28;20245;-72
2024/04/04 10:43:26;;;;;;;3.40;2.70;;;14.70;99.90;;;;;;5011425;28;20184;-74
2024/04/04 10:45:52;;;;;;;4.30;2.40;;;14.80;99.90;;;;;;5011576;28;20168;-72
2024/04/04 10:48:17;;;;;;;2.50;2.30;;;15.00;99.90;;;;;;5011016;28;20179;-73
2024/04/04 10:50:43;;;;;;;3.10;2.60;;;15.30;99.90;;;;;;5011123;28;20215;-73
2024/04/04 10:53:09;;;;;;;4.27;2.60;;;15.50;99.90;;;;;;5011175;28;20555;-73
2024/04/04 10:55:35;;;;;;;2.70;2.40;;;15.60;99.90;;;;;;5011444;28;20172;-73
2024/04/04 10:58:01;;;;;;;2.93;2.47;;;15.70;99.90;;;;;;5011198;28;20164;-72
2024/04/04 11:00:29;;;;;;;2.80;2.53;;;15.80;99.90;;;;;;5010980;28;20692;-72
2024/04/04 11:02:58;;;;;;;3.00;2.80;;;15.80;99.90;;;;;;5011195;28;20525;-72
2024/04/04 11:05:24;;;;;;;5.83;3.20;;;15.80;99.90;;;;;;5011039;28;20179;-72
2024/04/04 11:08:01;;;;;;;3.77;3.47;;;15.80;99.90;;;;;;5010971;28;20168;-75
2024/04/04 11:10:27;;;;;;;2.73;2.50;;;15.70;99.90;;;;;;5010839;28;20169;-72
2024/04/04 11:12:53;;;;;;;4.30;2.70;;;15.60;99.90;;;;;;4993599;28;20262;-75
2024/04/04 11:15:20;;;;;;;7.40;3.03;;;15.70;99.90;;;;;;5010883;28;20178;-73
2024/04/04 11:17:46;;;;;;;4.97;2.40;;;15.70;99.90;;;;;;5011066;28;20203;-74
2024/04/04 11:20:16;;;;;;;4.43;2.50;;;15.70;99.90;;;;;;5010220;28;20187;-75
2024/04/04 11:22:42;;;;;;;18.30;17.17;;;15.80;99.90;;;;;;5015245;28;20174;-73
2024/04/04 11:25:09;;;;;;;5.77;2.93;;;15.70;99.90;;;;;;5014925;28;20160;-74
2024/04/04 11:27:38;;;;;;;3.97;3.77;;;15.50;99.90;;;;;;5014850;28;20172;-73
2024/04/04 11:30:09;;;;;;;4.23;3.17;;;15.20;99.90;;;;;;5015177;28;20660;-71
2024/04/04 11:32:35;;;;;;;2.73;2.53;;;14.70;99.90;;;;;;5014804;28;20208;-72
2024/04/04 11:35:04;;;;;;;2.97;2.30;;;14.30;99.90;;;;;;5014355;28;20183;-72
2024/04/04 11:37:30;;;;;;;3.93;2.30;;;13.90;99.90;;;;;;5013224;28;20283;-73
2024/04/04 11:39:55;;;;;;;2.70;2.50;;;13.40;99.90;;;;;;5017535;28;20655;-74
2024/04/04 11:42:21;;;;;;;2.77;2.60;;;12.90;99.90;;;;;;5014696;28;20199;-74
2024/04/04 11:44:47;;;;;;;3.63;2.30;;;12.40;99.90;;;;;;5014801;28;20175;-74
2024/04/04 11:47:13;;;;;;;5.30;2.53;;;12.00;99.90;;;;;;5014721;28;20175;-74
2024/04/04 11:49:39;;;;;;;2.60;2.40;;;11.80;99.90;;;;;;5014606;28;20192;-73
2024/04/04 11:52:05;;;;;;;2.90;2.70;;;11.60;99.90;;;;;;5014499;28;20251;-74
2024/04/04 11:54:31;;;;;;;2.80;2.60;;;11.60;99.90;;;;;;5014707;28;20673;-72
2024/04/04 11:56:56;;;;;;;3.20;2.80;;;11.60;99.90;;;;;;5014123;28;20250;-73
2024/04/04 11:59:24;;;;;;;3.33;2.60;;;11.80;99.90;;;;;;5014230;28;20539;-75
2024/04/04 12:01:50;;;;;;;2.50;2.40;;;11.80;99.90;;;;;;4996965;28;20196;-73
2024/04/04 12:04:16;;;;;;;2.77;2.50;;;11.80;99.90;;;;;;5014039;28;20280;-74
2024/04/04 12:06:41;;;;;;;2.70;2.60;;;11.80;99.90;;;;;;5014127;28;20593;-73
2024/04/04 12:09:09;;;;;;;2.60;2.40;;;11.60;99.90;;;;;;5014382;28;20277;-74
2024/04/04 12:11:38;;;;;;;2.80;2.60;;;11.50;99.90;;;;;;5014519;28;20199;-74
2024/04/04 12:14:05;;;;;;;3.17;2.97;;;11.40;99.90;;;;;;5014199;28;20279;-72
2024/04/04 12:16:32;;;;;;;3.57;3.27;;;11.20;99.90;;;;;;5014284;28;20602;-75
2024/04/04 12:19:40;;;;;;;3.70;3.40;;;11.10;99.90;;;;;;5014467;28;20193;-73
2024/04/04 12:21:47;;;;;;;4.30;3.50;;;11.00;99.90;;;;;;5005302;28;20566;-74
2024/04/04 12:24:13;;;;;;;4.07;3.57;;;10.90;99.90;;;;;;5013731;28;20692;-71
2024/04/04 12:26:39;;;;;;;4.60;3.30;;;10.90;99.90;;;;;;5013576;28;20255;-75
2024/04/04 12:29:05;;;;;;;4.87;3.27;;;11.00;99.90;;;;;;5013575;28;20172;-72
2024/04/04 12:31:31;;;;;;;5.70;3.60;;;10.90;99.90;;;;;;5013331;28;20211;-75
2024/04/04 12:33:57;;;;;;;4.03;3.30;;;11.00;99.90;;;;;;5012894;28;20204;-78
2024/04/04 12:36:22;;;;;;;4.33;3.33;;;11.00;99.90;;;;;;5013775;28;20586;-76
2024/04/04 12:38:48;;;;;;;3.97;3.50;;;11.10;99.90;;;;;;5013403;28;20192;-74
2024/04/04 12:41:14;;;;;;;4.90;3.47;;;11.00;99.90;;;;;;5013142;28;20559;-76
2024/04/04 12:43:40;;;;;;;4.17;3.10;;;11.10;99.90;;;;;;5013723;28;20211;-75